EA5AHQ-13 Weather Reports


Display with metric or nautical units.
time (UTC)temp
F
wind
direction
speed
MPH
gust
MPH
rain 1hr
in
rain 24hr
in
rain mn
in
humidity
%
barometer
mb
20221203120203 59 0.0 0.0 0.00 0.00 0.00 41 1005.7
20221203113315 63 0.0 0.0 0.00 0.00 0.00 38 1005.9
20221203110250 57 0.0 0.0 0.00 0.00 0.00 47 1006.3
20221203103226 55 0.0 0.0 0.00 0.00 0.00 54 1006.7
20221203100204 53 0.0 0.0 0.00 0.00 0.00 54 1006.7
20221203093227 52 0.0 0.0 0.00 0.00 0.00 61 1006.8
20221203090202 49 0.0 0.0 0.00 0.00 0.00 67 1006.7
20221203083227 48 0.0 0.0 0.00 0.00 0.00 71 1006.4
20221203080202 44 0.0 0.0 0.00 0.00 0.00 74 1006.4
20221203073402 44 0.0 0.0 0.00 0.00 0.00 74 1006.6
20221203070604 45 0.0 0.0 0.00 0.00 0.00 73 1006.5
20221203063403 45 0.0 0.0 0.00 0.00 0.00 74 1006.7
20221203060728 45 0.0 0.0 0.00 0.00 0.00 74 1006.6
20221203053226 45 0.0 0.0 0.00 0.00 0.00 73 1006.4
20221203050202 45 0.0 0.0 0.00 0.00 0.00 73 1006.7
20221203043226 45 0.0 0.0 0.00 0.00 0.00 73 1006.7
20221203040203 45 0.0 0.0 0.00 0.00 0.00 74 1007.0
20221203033226 46 0.0 0.0 0.00 0.00 0.00 73 1007.2
20221203030202 46 0.0 0.0 0.00 0.00 0.00 73 1007.4
20221203023226 46 0.0 0.0 0.00 0.00 0.00 73 1007.8
20221203020202 46 0.0 0.0 0.00 0.01 0.00 73 1007.9
20221203013314 46 0.0 0.0 0.00 0.01 0.00 72 1008.2
20221203010328 46 0.0 0.0 0.00 0.01 0.00 73 1008.3
20221203003227 45 0.0 0.0 0.00 0.01 0.00 75 1008.5
20221203000204 45 0.0 0.0 0.00 0.03 0.00 74 1008.9
20221202233227 46 0.0 0.0 0.00 0.03 0.00 72 1009.2
20221202231003 47 0.0 0.0 0.00 0.03 0.03 72 1009.3
20221202223227 48 0.0 0.0 0.00 0.04 0.03 68 1009.5
20221202220203 49 0.0 0.0 0.00 0.04 0.03 65 1009.6
20221202213314 50 0.0 0.0 0.00 0.04 0.03 65 1009.4
20221202210251 50 0.0 0.0 0.00 0.04 0.03 66 1009.6
20221202203227 50 0.0 0.0 0.00 0.04 0.03 66 1009.4
20221202200203 50 0.0 0.0 0.00 0.04 0.03 69 1009.8
20221202193129 50 0.0 0.0 0.00 0.04 0.03 69 1009.8
20221202190329 51 0.0 0.0 0.00 0.04 0.03 69 1009.9
20221202183226 51 0.0 0.0 0.00 0.04 0.03 67 1009.8
20221202180202 51 0.0 0.0 0.00 0.04 0.03 66 1009.8
20221202173226 51 0.0 0.0 0.00 0.04 0.03 62 1009.8
20221202170202 52 0.0 0.0 0.00 0.04 0.03 60 1009.9
20221202163226 53 0.0 0.0 0.00 0.04 0.03 57 1009.8
20221202160202 55 0.0 0.0 0.00 0.04 0.03 55 1009.7
20221202153226 57 0.0 0.0 0.00 0.04 0.03 53 1009.6
20221202150202 55 0.0 0.0 0.00 0.04 0.03 53 1009.6
20221202143226 57 0.0 0.0 0.00 0.04 0.03 51 1009.9
20221202140202 58 0.0 0.0 0.00 0.04 0.03 50 1010.0
20221202133226 57 0.0 0.0 0.00 0.04 0.03 49 1010.3
20221202130603 59 0.0 0.0 0.00 0.04 0.03 48 1010.6
20221202123226 58 0.0 0.0 0.00 0.04 0.03 51 1011.1